首页
METAR-TAF:

METAR-TAF

机场 :

魁北克让·勒萨热国际机场

魁北克, 魁北克, 加拿大

纬度: 46-48N, 经度: 071-23W, 海拔: 70米

当前天气观测

该预报发布于1小时和6分钟前的22:00 UTC
风速7节,风向西转西南
温度 23°C
湿度 65%
气压 1008 hPa
能見度: 48.3公里
少量云层高于3500英尺
散云层高于8000英尺
多云层高于13000英尺
多云层高于22000英尺

METAR: CYQB 232200Z 25007KT 30SM FEW035 SCT080 BKN130 BKN220 23/16 A2978 RMK SC1AC2AC3CI1 SLP087 DENSITY ALT 1400FT

时间: 19:06 (23:06 UTC)

预报

该预报发布于5小时和26分钟前的17:40 UTC
预报有效从23日的 18点(UTC)到 24日的 18点(UTC)
风速6节,风向西转西南
能見度: 10公里
多云层高于15000英尺
从 23日的 2300点(UTC)
风速3节,风向多变
能見度: 10公里
阴天层高于10000英尺
成为
从 24日的 03点(UTC)到 24日的 05点(UTC)
风速10节,风向西转西南
从 24日的 0900点(UTC)
风速5节,风向西
能見度: 10公里
阴天层高于8000英尺
成为
从 24日的 15点(UTC)到 24日的 17点(UTC)
风速10节,风向

TAF: CYQB 231740Z 2318/2418 24006KT P6SM BKN150 FM232300 VRB03KT P6SM OVC100 BECMG 2403/2405 25010KT FM240900 26005KT P6SM OVC080 BECMG 2415/2417 09010KT RMK NXT FCST BY 240000Z

超过4000个机场的气象观测和天气预报(METAR&TAF报告)。

可查询的气象台以黄色和红色小点在地图上表示。

将鼠标移到小点上方,可查看气象台名称。

然后点击查看天气观测和预报。

如需切换地图:点击带黑十字的绿色按钮放大地图;点击带横线的绿色按钮缩小地图;或者点击绿色箭头查看邻近地区的地图。


METAR-TAF: